createdAt,value
2017-10-29T00:00:23.478Z,14.44
2017-10-29T00:01:23.419Z,14.5
2017-10-29T00:02:23.406Z,14.44
2017-10-29T00:03:23.416Z,14.44
2017-10-29T00:04:23.352Z,14.42
2017-10-29T00:05:23.332Z,14.42
2017-10-29T00:06:22.674Z,14.38
2017-10-29T00:07:22.975Z,14.5
2017-10-29T00:08:23.314Z,14.4
2017-10-29T00:09:22.607Z,14.46
2017-10-29T00:10:22.915Z,14.44
2017-10-29T00:11:22.899Z,14.33
2017-10-29T00:12:23.195Z,14.44
2017-10-29T00:13:23.177Z,14.36
2017-10-29T00:14:23.171Z,14.48
2017-10-29T00:15:23.144Z,14.4
2017-10-29T00:16:22.865Z,14.44
2017-10-29T00:17:23.109Z,14.4
2017-10-29T00:18:23.124Z,14.4
2017-10-29T00:19:23.067Z,14.46
2017-10-29T00:20:23.145Z,14.35
2017-10-29T00:21:23.036Z,14.36
2017-10-29T00:22:22.681Z,14.44
2017-10-29T00:23:22.677Z,14.46
2017-10-29T00:24:22.975Z,14.35
2017-10-29T00:25:22.944Z,14.39
2017-10-29T00:26:22.935Z,14.33
2017-10-29T00:27:22.595Z,14.32
2017-10-29T00:28:22.939Z,14.38
2017-10-29T00:29:22.893Z,14.33
2017-10-29T00:30:22.536Z,14.33
2017-10-29T00:31:22.838Z,14.4
2017-10-29T00:32:22.493Z,14.46
2017-10-29T00:33:22.481Z,14.44
2017-10-29T00:34:22.184Z,14.46
2017-10-29T00:35:22.448Z,14.4
2017-10-29T00:36:22.418Z,14.39
2017-10-29T00:37:22.730Z,14.38
2017-10-29T00:38:22.376Z,14.36
2017-10-29T00:39:22.351Z,14.26
2017-10-29T00:40:22.354Z,14.28
2017-10-29T00:41:22.331Z,14.33
2017-10-29T00:42:22.627Z,14.35
2017-10-29T00:43:22.659Z,14.35
2017-10-29T00:44:21.949Z,14.38
2017-10-29T00:45:22.255Z,14.35
2017-10-29T00:46:22.594Z,14.3
2017-10-29T00:47:22.534Z,14.25
2017-10-29T00:48:22.194Z,14.33
2017-10-29T00:49:22.174Z,14.39
2017-10-29T00:50:22.487Z,14.36
2017-10-29T00:51:22.143Z,14.39
2017-10-29T00:52:22.107Z,14.39
2017-10-29T00:53:22.104Z,14.4
2017-10-29T00:54:22.065Z,14.36
2017-10-29T00:55:22.050Z,14.28
2017-10-29T00:56:22.036Z,14.35
2017-10-29T00:57:22.384Z,14.25
2017-10-29T00:58:22.316Z,14.3
2017-10-29T00:59:21.976Z,14.3
2017-10-29T01:00:21.958Z,14.35
2017-10-29T01:01:21.935Z,14.25
2017-10-29T01:02:22.249Z,14.26
2017-10-29T01:03:21.893Z,14.26
2017-10-29T01:04:22.218Z,14.33
2017-10-29T01:05:22.197Z,14.28
2017-10-29T01:06:21.528Z,14.32
2017-10-29T01:07:22.137Z,14.35
2017-10-29T01:08:22.135Z,14.32
2017-10-29T01:09:22.113Z,14.35
2017-10-29T01:10:21.805Z,14.28
2017-10-29T01:11:22.063Z,14.2
2017-10-29T01:12:22.046Z,14.15
2017-10-29T01:13:21.390Z,14.07
2017-10-29T01:14:22.004Z,14.14
2017-10-29T01:15:21.665Z,14.14
2017-10-29T01:16:21.984Z,14.07
2017-10-29T01:17:21.957Z,14.21
2017-10-29T01:18:21.603Z,14.1
2017-10-29T01:19:21.593Z,14.17
2017-10-29T01:20:21.892Z,14.15
2017-10-29T01:21:21.875Z,14.14
2017-10-29T01:22:21.206Z,14.11
2017-10-29T01:23:21.509Z,14.15
2017-10-29T01:24:21.496Z,14.07
2017-10-29T01:25:21.476Z,14.11
2017-10-29T01:26:21.776Z,14.14
2017-10-29T01:27:21.759Z,14.11
2017-10-29T01:28:21.753Z,14.14
2017-10-29T01:29:21.724Z,14.15
2017-10-29T01:30:21.713Z,14.07
2017-10-29T01:31:21.707Z,14.14
2017-10-29T01:32:21.668Z,14.15
2017-10-29T01:33:21.644Z,14.15
2017-10-29T01:34:21.312Z,14.14
2017-10-29T01:35:21.311Z,14.13
2017-10-29T01:36:21.585Z,14.08
2017-10-29T01:37:21.575Z,14.14
2017-10-29T01:38:21.562Z,14.2
2017-10-29T01:39:21.535Z,14.22
2017-10-29T01:40:21.545Z,14.17
2017-10-29T01:41:21.163Z,14.15
2017-10-29T01:42:21.507Z,14.18
2017-10-29T01:43:21.334Z,14.28
2017-10-29T01:44:21.115Z,14.2
2017-10-29T01:45:21.418Z,14.25
2017-10-29T01:46:21.396Z,14.29
2017-10-29T01:47:21.374Z,14.29
2017-10-29T01:48:21.397Z,14.29
2017-10-29T01:49:21.345Z,14.26
2017-10-29T01:50:21.313Z,14.33
2017-10-29T01:51:21.302Z,14.21
2017-10-29T01:52:20.964Z,14.26
2017-10-29T01:53:20.945Z,14.2
2017-10-29T01:54:20.919Z,14.26
2017-10-29T01:55:21.225Z,14.2
2017-10-29T01:56:20.648Z,14.29
2017-10-29T01:57:20.852Z,14.29
2017-10-29T01:58:21.176Z,14.32
2017-10-29T01:59:20.824Z,14.26
2017-10-29T02:00:21.135Z,14.32
2017-10-29T02:01:21.093Z,14.29
2017-10-29T02:02:21.144Z,14.26
2017-10-29T02:03:21.074Z,14.28
2017-10-29T02:04:21.074Z,14.32
2017-10-29T02:05:21.044Z,14.35
2017-10-29T02:06:21.057Z,14.29
2017-10-29T02:07:20.654Z,14.28
2017-10-29T02:08:20.663Z,14.28
2017-10-29T02:09:20.625Z,14.17
2017-10-29T02:10:20.604Z,14.25
2017-10-29T02:11:20.906Z,14.17
2017-10-29T02:12:20.923Z,14.17
2017-10-29T02:13:20.874Z,14.2
2017-10-29T02:14:20.533Z,14.17
2017-10-29T02:15:20.511Z,14.08
2017-10-29T02:16:20.500Z,14.13
2017-10-29T02:17:20.474Z,14.07
2017-10-29T02:18:20.785Z,14.02
2017-10-29T02:19:20.755Z,14.02
2017-10-29T02:20:20.734Z,13.95
2017-10-29T02:21:20.072Z,14
2017-10-29T02:22:20.376Z,13.92
2017-10-29T02:23:20.778Z,13.81
2017-10-29T02:24:20.337Z,13.84
2017-10-29T02:25:20.322Z,13.8
2017-10-29T02:26:20.634Z,13.84
2017-10-29T02:27:20.633Z,13.74
2017-10-29T02:28:20.584Z,13.7
2017-10-29T02:29:20.577Z,13.67
2017-10-29T02:30:20.577Z,13.72
2017-10-29T02:31:20.513Z,13.8
2017-10-29T02:32:20.517Z,13.81
2017-10-29T02:33:20.474Z,13.81
2017-10-29T02:34:19.811Z,13.78
2017-10-29T02:35:20.123Z,13.88
2017-10-29T02:36:20.425Z,13.88
2017-10-29T02:37:20.096Z,13.84
2017-10-29T02:38:19.741Z,13.82
2017-10-29T02:39:20.061Z,13.85
2017-10-29T02:40:20.360Z,13.82
2017-10-29T02:41:20.335Z,13.85
2017-10-29T02:42:19.995Z,13.8
2017-10-29T02:43:19.977Z,13.82
2017-10-29T02:44:20.278Z,13.8
2017-10-29T02:45:20.255Z,13.7
2017-10-29T02:46:20.224Z,13.72
2017-10-29T02:47:20.225Z,13.74
2017-10-29T02:48:19.867Z,13.75
2017-10-29T02:49:20.165Z,13.75
2017-10-29T02:50:19.511Z,13.7
2017-10-29T02:51:19.817Z,13.71
2017-10-29T02:52:20.112Z,13.75
2017-10-29T02:53:20.108Z,13.71
2017-10-29T02:54:19.753Z,13.75
2017-10-29T02:55:19.754Z,13.77
2017-10-29T02:56:19.395Z,13.75
2017-10-29T02:57:20.002Z,13.71
2017-10-29T02:58:19.691Z,13.74
2017-10-29T02:59:19.328Z,13.74
2017-10-29T03:00:19.316Z,13.65
2017-10-29T03:01:19.627Z,13.71
2017-10-29T03:02:19.327Z,13.75
2017-10-29T03:03:19.672Z,13.71
2017-10-29T03:04:19.237Z,13.67
2017-10-29T03:05:19.857Z,13.72
2017-10-29T03:06:19.834Z,13.8
2017-10-29T03:07:19.489Z,13.8
2017-10-29T03:08:19.475Z,13.75
2017-10-29T03:09:19.444Z,13.77
2017-10-29T03:10:19.433Z,13.77
2017-10-29T03:11:19.750Z,13.65
2017-10-29T03:12:19.392Z,13.81
2017-10-29T03:13:19.373Z,13.65
2017-10-29T03:14:19.362Z,13.84
2017-10-29T03:15:19.028Z,13.84
2017-10-29T03:16:19.326Z,13.8
2017-10-29T03:17:19.297Z,13.74
2017-10-29T03:18:19.295Z,13.74
2017-10-29T03:19:19.574Z,13.66
2017-10-29T03:20:19.604Z,13.6
2017-10-29T03:21:19.556Z,13.38
2017-10-29T03:22:19.210Z,13.22
2017-10-29T03:23:19.504Z,13.22
2017-10-29T03:24:19.165Z,13.14
2017-10-29T03:25:19.145Z,13.16
2017-10-29T03:26:19.124Z,13.06
2017-10-29T03:27:19.425Z,12.96
2017-10-29T03:28:19.095Z,12.76
2017-10-29T03:29:19.075Z,12.76
2017-10-29T03:30:19.376Z,12.7
2017-10-29T03:31:19.367Z,12.58
2017-10-29T03:32:19.325Z,12.55
2017-10-29T03:33:19.318Z,12.52
2017-10-29T03:34:19.429Z,12.58
2017-10-29T03:35:19.356Z,12.58
2017-10-29T03:36:19.265Z,12.61
2017-10-29T03:37:19.279Z,12.68
2017-10-29T03:38:19.223Z,12.65
2017-10-29T03:39:18.544Z,12.64
2017-10-29T03:40:18.843Z,12.6
2017-10-29T03:41:19.165Z,12.64
2017-10-29T03:42:19.135Z,12.64
2017-10-29T03:43:19.145Z,12.64
2017-10-29T03:44:19.085Z,12.63
2017-10-29T03:45:19.065Z,12.78
2017-10-29T03:46:19.045Z,12.78
2017-10-29T03:47:19.024Z,12.76
2017-10-29T03:48:18.686Z,12.71
2017-10-29T03:49:18.695Z,12.7
2017-10-29T03:50:18.965Z,12.64
2017-10-29T03:51:18.637Z,12.68
2017-10-29T03:52:18.957Z,12.64
2017-10-29T03:53:18.585Z,12.65
2017-10-29T03:54:18.584Z,12.64
2017-10-29T03:55:18.545Z,12.76
2017-10-29T03:56:18.204Z,12.73
2017-10-29T03:57:18.825Z,12.74
2017-10-29T03:58:18.818Z,12.73
2017-10-29T03:59:18.479Z,12.81
2017-10-29T04:00:18.451Z,12.79
2017-10-29T04:01:18.421Z,12.85
2017-10-29T04:02:18.714Z,12.81
2017-10-29T04:03:18.374Z,12.83
2017-10-29T04:04:18.686Z,12.86
2017-10-29T04:05:18.655Z,12.79
2017-10-29T04:06:18.377Z,12.83
2017-10-29T04:07:18.624Z,12.88
2017-10-29T04:08:18.601Z,12.83
2017-10-29T04:09:18.615Z,12.79
2017-10-29T04:10:18.232Z,12.78
2017-10-29T04:11:18.645Z,12.76
2017-10-29T04:12:18.198Z,12.65
2017-10-29T04:13:18.176Z,12.61
2017-10-29T04:14:18.155Z,12.71
2017-10-29T04:15:18.148Z,12.57
2017-10-29T04:16:18.432Z,12.65
2017-10-29T04:17:18.427Z,12.68
2017-10-29T04:18:18.082Z,12.73
2017-10-29T04:19:18.054Z,12.65
2017-10-29T04:20:18.039Z,12.7
2017-10-29T04:21:18.342Z,12.58
2017-10-29T04:22:18.325Z,12.63
2017-10-29T04:23:18.020Z,12.61
2017-10-29T04:24:18.277Z,12.65
2017-10-29T04:25:18.264Z,12.68
2017-10-29T04:26:17.617Z,12.71
2017-10-29T04:27:18.247Z,12.63
2017-10-29T04:28:18.208Z,12.6
2017-10-29T04:29:18.197Z,12.58
2017-10-29T04:30:17.830Z,12.57
2017-10-29T04:31:17.805Z,12.61
2017-10-29T04:32:18.115Z,12.49
2017-10-29T04:33:17.452Z,12.48
2017-10-29T04:34:18.084Z,12.49
2017-10-29T04:35:17.734Z,12.58
2017-10-29T04:36:18.046Z,12.64
2017-10-29T04:37:18.014Z,12.76
2017-10-29T04:38:18.005Z,12.78
2017-10-29T04:39:17.984Z,12.78
2017-10-29T04:40:17.958Z,12.78
2017-10-29T04:41:17.294Z,12.76
2017-10-29T04:42:17.584Z,12.85
2017-10-29T04:43:17.575Z,12.74
2017-10-29T04:44:17.552Z,12.88
2017-10-29T04:45:17.525Z,12.86
2017-10-29T04:46:17.286Z,12.79
2017-10-29T04:47:17.161Z,12.88
2017-10-29T04:48:17.855Z,13.01
2017-10-29T04:49:17.768Z,12.98
2017-10-29T04:50:17.427Z,12.98
2017-10-29T04:51:17.504Z,12.83
2017-10-29T04:52:17.385Z,12.88
2017-10-29T04:53:17.702Z,12.83
2017-10-29T04:54:17.744Z,12.86
2017-10-29T04:55:17.656Z,12.73
2017-10-29T04:56:17.315Z,12.68
2017-10-29T04:57:17.305Z,12.68
2017-10-29T04:58:17.605Z,12.74
2017-10-29T04:59:17.259Z,12.76
2017-10-29T05:00:17.213Z,12.74
2017-10-29T05:01:17.227Z,12.74
2017-10-29T05:02:17.184Z,12.74
2017-10-29T05:03:17.187Z,12.74
2017-10-29T05:04:16.823Z,12.79
2017-10-29T05:05:17.168Z,12.78
2017-10-29T05:06:17.555Z,12.67
2017-10-29T05:07:17.081Z,12.67
2017-10-29T05:08:17.127Z,12.65
2017-10-29T05:09:17.028Z,12.63
2017-10-29T05:10:16.707Z,12.64
2017-10-29T05:11:17.372Z,12.68
2017-10-29T05:12:17.313Z,12.74
2017-10-29T05:13:17.283Z,12.68
2017-10-29T05:14:17.370Z,12.7
2017-10-29T05:15:17.290Z,12.65
2017-10-29T05:16:17.230Z,12.64
2017-10-29T05:17:16.878Z,12.71
2017-10-29T05:18:17.182Z,12.74
2017-10-29T05:19:17.211Z,12.73
2017-10-29T05:20:16.840Z,12.71
2017-10-29T05:21:16.800Z,12.68
2017-10-29T05:22:16.810Z,12.76
2017-10-29T05:23:16.441Z,12.64
2017-10-29T05:24:17.101Z,12.76
2017-10-29T05:25:17.028Z,12.64
2017-10-29T05:26:17.034Z,12.73
2017-10-29T05:27:16.667Z,12.73
2017-10-29T05:28:16.351Z,12.63
2017-10-29T05:29:16.961Z,12.57
2017-10-29T05:30:16.943Z,12.52
2017-10-29T05:31:16.977Z,12.6
2017-10-29T05:32:16.894Z,12.58
2017-10-29T05:33:16.891Z,12.6
2017-10-29T05:34:16.533Z,12.61
2017-10-29T05:35:16.185Z,12.53
2017-10-29T05:36:16.501Z,12.6
2017-10-29T05:37:16.816Z,12.45
2017-10-29T05:38:16.785Z,12.45
2017-10-29T05:39:16.810Z,12.43
2017-10-29T05:40:16.750Z,12.46
2017-10-29T05:41:16.390Z,12.39
2017-10-29T05:42:16.702Z,12.35
2017-10-29T05:43:16.691Z,12.35
2017-10-29T05:44:16.330Z,12.39
2017-10-29T05:45:16.645Z,12.39
2017-10-29T05:46:16.609Z,12.32
2017-10-29T05:47:16.269Z,12.35
2017-10-29T05:48:16.571Z,12.35
2017-10-29T05:49:16.220Z,12.34
2017-10-29T05:50:16.214Z,12.34
2017-10-29T05:51:16.561Z,12.35
2017-10-29T05:52:16.493Z,12.25
2017-10-29T05:53:16.150Z,12.28
2017-10-29T05:54:16.122Z,12.2
2017-10-29T05:55:16.443Z,12.2
2017-10-29T05:56:16.089Z,12.23
2017-10-29T05:57:16.403Z,12.16
2017-10-29T05:58:16.389Z,12.13
2017-10-29T05:59:16.352Z,12.05
2017-10-29T06:00:16.340Z,12.02
2017-10-29T06:01:15.992Z,12.06
2017-10-29T06:02:15.639Z,12.05
2017-10-29T06:03:16.270Z,11.99
2017-10-29T06:04:15.938Z,11.97
2017-10-29T06:05:16.452Z,11.95
2017-10-29T06:06:16.220Z,11.91
2017-10-29T06:07:16.289Z,11.95
2017-10-29T06:08:16.150Z,11.89
2017-10-29T06:09:15.821Z,11.95
2017-10-29T06:10:16.141Z,11.95
2017-10-29T06:11:15.790Z,11.94
2017-10-29T06:12:16.080Z,11.91
2017-10-29T06:13:16.170Z,11.87
2017-10-29T06:14:15.396Z,11.83
2017-10-29T06:15:15.484Z,11.94
2017-10-29T06:16:16.019Z,11.91
2017-10-29T06:17:15.432Z,11.9
2017-10-29T06:18:15.942Z,11.94
2017-10-29T06:19:15.610Z,11.84
2017-10-29T06:20:15.581Z,11.89
2017-10-29T06:21:15.938Z,11.84
2017-10-29T06:22:15.754Z,11.89
2017-10-29T06:23:15.938Z,11.9
2017-10-29T06:24:15.598Z,11.87
2017-10-29T06:25:15.928Z,11.89
2017-10-29T06:26:15.167Z,12.02
2017-10-29T06:27:15.759Z,11.89
2017-10-29T06:28:15.459Z,11.91
2017-10-29T06:29:15.868Z,11.87
2017-10-29T06:30:15.390Z,11.97
2017-10-29T06:31:15.698Z,11.9
2017-10-29T06:32:15.739Z,11.91
2017-10-29T06:33:15.659Z,11.9
2017-10-29T06:34:15.691Z,11.89
2017-10-29T06:35:15.011Z,11.99
2017-10-29T06:36:15.628Z,11.97
2017-10-29T06:37:15.598Z,11.89
2017-10-29T06:38:15.660Z,11.95
2017-10-29T06:39:15.519Z,11.91
2017-10-29T06:40:15.246Z,11.94
2017-10-29T06:41:14.940Z,11.97
2017-10-29T06:42:15.520Z,12.02
2017-10-29T06:43:15.459Z,11.91
2017-10-29T06:44:15.528Z,11.94
2017-10-29T06:45:15.403Z,11.95
2017-10-29T06:46:15.059Z,12.02
2017-10-29T06:47:15.357Z,12.02
2017-10-29T06:48:15.118Z,11.91
2017-10-29T06:49:15.317Z,11.97
2017-10-29T06:50:14.965Z,12.02
2017-10-29T06:51:14.954Z,12.05
2017-10-29T06:52:15.258Z,12.05
2017-10-29T06:53:14.580Z,12.02
2017-10-29T06:54:15.211Z,12.03
2017-10-29T06:55:15.312Z,12.02
2017-10-29T06:56:14.941Z,12.06
2017-10-29T06:57:15.139Z,12.15
2017-10-29T06:58:15.121Z,12.16
2017-10-29T06:59:14.775Z,12.31
2017-10-29T07:00:15.116Z,12.45
2017-10-29T07:01:15.057Z,12.45
2017-10-29T07:02:15.059Z,12.55
2017-10-29T07:03:14.702Z,12.58
2017-10-29T07:04:14.988Z,12.63
2017-10-29T07:05:14.995Z,12.71
2017-10-29T07:06:14.950Z,12.82
2017-10-29T07:07:14.281Z,12.71
2017-10-29T07:08:14.916Z,12.74
2017-10-29T07:09:14.568Z,12.67
2017-10-29T07:10:14.568Z,12.6
2017-10-29T07:11:14.865Z,12.57
2017-10-29T07:12:14.525Z,12.64
2017-10-29T07:13:14.830Z,12.73
2017-10-29T07:14:14.476Z,12.78
2017-10-29T07:15:14.450Z,12.82
2017-10-29T07:16:14.439Z,12.85
2017-10-29T07:17:14.421Z,12.73
2017-10-29T07:18:14.388Z,12.73
2017-10-29T07:19:14.370Z,12.52
2017-10-29T07:20:14.690Z,12.5
2017-10-29T07:21:14.649Z,12.49
2017-10-29T07:22:14.660Z,12.5
2017-10-29T07:23:14.285Z,12.53
2017-10-29T07:24:14.629Z,12.65
2017-10-29T07:25:14.568Z,12.67
2017-10-29T07:26:14.225Z,12.67
2017-10-29T07:27:14.214Z,12.6
2017-10-29T07:28:14.534Z,12.68
2017-10-29T07:29:14.845Z,12.9
2017-10-29T07:30:14.475Z,13.01
2017-10-29T07:31:14.481Z,13.22
2017-10-29T07:32:13.793Z,13.45
2017-10-29T07:33:14.416Z,13.65
2017-10-29T07:34:14.410Z,13.96
2017-10-29T07:35:14.382Z,13.84
2017-10-29T07:36:14.360Z,13.82
2017-10-29T07:37:14.356Z,14.1
2017-10-29T07:38:14.350Z,14.32
2017-10-29T07:39:14.333Z,14.44
2017-10-29T07:40:14.283Z,14.5
2017-10-29T07:41:14.310Z,14.35
2017-10-29T07:42:14.257Z,14.26
2017-10-29T07:43:13.954Z,14.05
2017-10-29T07:44:13.905Z,13.8
2017-10-29T07:45:14.400Z,13.75
2017-10-29T07:46:13.860Z,13.59
2017-10-29T07:47:14.184Z,13.8
2017-10-29T07:48:13.820Z,13.7
2017-10-29T07:49:14.241Z,13.72
2017-10-29T07:50:13.772Z,13.72
2017-10-29T07:51:14.099Z,13.74
2017-10-29T07:52:13.810Z,13.93
2017-10-29T07:53:14.060Z,14.2
2017-10-29T07:54:13.761Z,14.32
2017-10-29T07:55:13.700Z,14.48
2017-10-29T07:56:13.999Z,14.42
2017-10-29T07:57:14.120Z,14.48
2017-10-29T07:58:13.962Z,14.48
2017-10-29T07:59:14.062Z,14.14
2017-10-29T08:00:14.012Z,14.18
2017-10-29T08:01:13.285Z,14.21
2017-10-29T08:02:14.134Z,14.22
2017-10-29T08:03:13.893Z,14.14
2017-10-29T08:04:13.970Z,14.2
2017-10-29T08:05:13.513Z,14.54
2017-10-29T08:06:13.830Z,14.55
2017-10-29T08:07:13.901Z,14.68
2017-10-29T08:08:14.145Z,14.92
2017-10-29T08:09:13.451Z,15.13
2017-10-29T08:10:13.488Z,15.27
2017-10-29T08:11:13.435Z,15.44
2017-10-29T08:12:13.537Z,15.39
2017-10-29T08:13:13.745Z,15.34
2017-10-29T08:14:13.050Z,15.42
2017-10-29T08:15:13.351Z,15.32
2017-10-29T08:16:13.400Z,15.22
2017-10-29T08:17:13.665Z,15.24
2017-10-29T08:18:13.707Z,14.92
2017-10-29T08:19:13.611Z,14.94
2017-10-29T08:20:13.296Z,15.17
2017-10-29T08:21:13.597Z,15.39
2017-10-29T08:22:13.586Z,15.64
2017-10-29T08:23:13.539Z,16.02
2017-10-29T08:24:13.233Z,16.27
2017-10-29T08:25:13.198Z,16.43
2017-10-29T08:26:13.514Z,16.48
2017-10-29T08:27:13.162Z,16.36
2017-10-29T08:28:13.501Z,16.34
2017-10-29T08:29:13.262Z,16.45
2017-10-29T08:30:13.521Z,16.68
2017-10-29T08:31:13.441Z,16.82
2017-10-29T08:32:13.461Z,17.06
2017-10-29T08:33:13.424Z,17.16
2017-10-29T08:34:13.403Z,17.52
2017-10-29T08:35:13.040Z,17.8
2017-10-29T08:36:13.360Z,17.98
2017-10-29T08:37:13.023Z,17.87
2017-10-29T08:38:13.331Z,17.92
2017-10-29T08:39:13.401Z,17.89
2017-10-29T08:40:13.313Z,18.12
2017-10-29T08:41:13.412Z,18.07
2017-10-29T08:42:13.279Z,18.14
2017-10-29T08:43:13.371Z,18.29
2017-10-29T08:44:13.264Z,18.27
2017-10-29T08:45:13.272Z,18.02
2017-10-29T08:46:13.251Z,18.12
2017-10-29T08:47:13.211Z,18.11
2017-10-29T08:48:13.222Z,18.25
2017-10-29T08:49:12.871Z,18.29
2017-10-29T08:50:12.862Z,18.38
2017-10-29T08:51:12.857Z,18.45
2017-10-29T08:52:12.825Z,18.62
2017-10-29T08:53:13.151Z,18.82
2017-10-29T08:54:12.802Z,18.84
2017-10-29T08:55:12.803Z,18.74
2017-10-29T08:56:13.102Z,18.85
2017-10-29T08:57:12.781Z,18.8
2017-10-29T08:58:12.771Z,18.52
2017-10-29T08:59:13.092Z,18.62
2017-10-29T09:00:13.063Z,18.67
2017-10-29T09:01:12.733Z,18.52
2017-10-29T09:02:12.725Z,18.4
2017-10-29T09:03:13.033Z,18.12
2017-10-29T09:04:13.033Z,18.33
2017-10-29T09:05:13.002Z,18.25
2017-10-29T09:06:13.004Z,18.12
2017-10-29T09:07:12.992Z,18.12
2017-10-29T09:08:12.989Z,17.64
2017-10-29T09:09:12.646Z,17.06
2017-10-29T09:10:12.621Z,16.57
2017-10-29T09:11:12.930Z,16.1
2017-10-29T09:12:12.602Z,15.95
2017-10-29T09:13:12.922Z,15.54
2017-10-29T09:14:12.588Z,15.24
2017-10-29T09:15:12.870Z,15.03
2017-10-29T09:16:12.873Z,14.85
2017-10-29T09:17:12.862Z,14.51
2017-10-29T09:18:12.854Z,14.17
2017-10-29T09:19:12.499Z,14.4
2017-10-29T09:20:12.479Z,14.94
2017-10-29T09:21:12.805Z,15.21
2017-10-29T09:22:12.164Z,15.4
2017-10-29T09:23:12.443Z,15.58
2017-10-29T09:24:12.110Z,15.76
2017-10-29T09:25:12.422Z,15.87
2017-10-29T09:26:12.731Z,15.9
2017-10-29T09:27:12.391Z,16.1
2017-10-29T09:28:12.691Z,16.34
2017-10-29T09:29:12.696Z,16.72
2017-10-29T09:30:12.054Z,17.05
2017-10-29T09:31:12.912Z,17.34
2017-10-29T09:32:12.632Z,17.39
2017-10-29T09:33:12.297Z,17.46
2017-10-29T09:34:12.404Z,17.48
2017-10-29T09:35:12.275Z,17.44
2017-10-29T09:36:12.640Z,17.03
2017-10-29T09:37:12.269Z,16.75
2017-10-29T09:38:12.709Z,16.6
2017-10-29T09:39:12.534Z,16.58
2017-10-29T09:40:12.322Z,16.6
2017-10-29T09:41:12.181Z,16.74
2017-10-29T09:42:12.171Z,16.76
2017-10-29T09:43:12.159Z,16.78
2017-10-29T09:44:12.162Z,16.76
2017-10-29T09:45:12.136Z,16.75
2017-10-29T09:46:12.126Z,16.94
2017-10-29T09:47:12.114Z,17.34
2017-10-29T09:48:12.501Z,17.74
2017-10-29T09:49:12.085Z,18.1
2017-10-29T09:50:12.418Z,18.11
2017-10-29T09:51:12.119Z,18.15
2017-10-29T09:52:12.422Z,17.78
2017-10-29T09:53:12.411Z,17.65
2017-10-29T09:54:12.083Z,17.67
2017-10-29T09:55:12.031Z,17.9
2017-10-29T09:56:12.333Z,17.87
2017-10-29T09:57:12.328Z,17.55
2017-10-29T09:58:12.354Z,17.4
2017-10-29T09:59:11.965Z,17.64
2017-10-29T10:00:12.306Z,17.8
2017-10-29T10:01:11.947Z,17.82
2017-10-29T10:02:12.267Z,17.83
2017-10-29T10:03:11.935Z,17.82
2017-10-29T10:04:12.244Z,17.31
2017-10-29T10:05:12.286Z,16.83
2017-10-29T10:06:11.895Z,16.78
2017-10-29T10:07:11.934Z,16.69
2017-10-29T10:08:12.193Z,16.93
2017-10-29T10:09:12.283Z,17.06
2017-10-29T10:10:12.163Z,16.98
2017-10-29T10:11:12.158Z,17.06
2017-10-29T10:12:12.152Z,16.76
2017-10-29T10:13:12.193Z,16.75
2017-10-29T10:14:12.137Z,16.78
2017-10-29T10:15:12.125Z,16.72
2017-10-29T10:16:12.097Z,16.69
2017-10-29T10:17:12.088Z,16.75
2017-10-29T10:18:12.078Z,16.39
2017-10-29T10:19:12.087Z,16.26
2017-10-29T10:20:12.101Z,16.23
2017-10-29T10:21:12.044Z,16.02
2017-10-29T10:22:12.027Z,16.08
2017-10-29T10:23:11.985Z,15.64
2017-10-29T10:24:11.994Z,15.27
2017-10-29T10:25:12.009Z,15.28
2017-10-29T10:26:11.961Z,15.1
2017-10-29T10:27:11.734Z,15.06
2017-10-29T10:28:11.944Z,14.94
2017-10-29T10:29:11.919Z,14.73
2017-10-29T10:30:11.917Z,14.47
2017-10-29T10:31:11.887Z,14.54
2017-10-29T10:32:11.897Z,14.57
2017-10-29T10:33:11.513Z,14.54
2017-10-29T10:34:11.508Z,14.38
2017-10-29T10:35:11.799Z,14.38
2017-10-29T10:36:11.475Z,14.39
2017-10-29T10:37:11.788Z,14.66
2017-10-29T10:38:11.505Z,14.62
2017-10-29T10:39:11.748Z,14.6
2017-10-29T10:40:11.722Z,14.38
2017-10-29T10:41:11.724Z,14.42
2017-10-29T10:42:11.694Z,14.69
2017-10-29T10:43:11.366Z,14.85
2017-10-29T10:44:11.455Z,14.84
2017-10-29T10:45:11.686Z,15.2
2017-10-29T10:46:11.661Z,15.44
2017-10-29T10:47:11.625Z,15.64
2017-10-29T10:48:11.590Z,16.04
2017-10-29T10:49:11.659Z,16.46
2017-10-29T10:50:11.592Z,16.79
2017-10-29T10:51:11.553Z,17.14
2017-10-29T10:52:11.545Z,17.33
2017-10-29T10:53:11.567Z,17.48
2017-10-29T10:54:11.526Z,17.39
2017-10-29T10:55:11.515Z,17.16
2017-10-29T10:56:11.263Z,17.34
2017-10-29T10:57:11.454Z,17.34
2017-10-29T10:58:11.491Z,17.21
2017-10-29T10:59:11.479Z,17.18
2017-10-29T11:00:11.102Z,17.31
2017-10-29T11:01:11.446Z,17.29
2017-10-29T11:02:11.469Z,17.16
2017-10-29T11:03:11.057Z,17.26
2017-10-29T11:04:11.235Z,17.19
2017-10-29T11:05:11.395Z,17.18
2017-10-29T11:06:11.373Z,17.15
2017-10-29T11:07:11.442Z,16.93
2017-10-29T11:08:10.996Z,16.69
2017-10-29T11:09:11.396Z,16.74
2017-10-29T11:10:11.348Z,16.61
2017-10-29T11:11:11.309Z,16.27
2017-10-29T11:12:10.607Z,16.34
2017-10-29T11:13:11.376Z,16.28
2017-10-29T11:14:11.272Z,16.32
2017-10-29T11:15:11.625Z,16.21
2017-10-29T11:16:11.203Z,16.36
2017-10-29T11:17:11.236Z,16.36
2017-10-29T11:18:11.183Z,16.51
2017-10-29T11:19:11.177Z,16.69
2017-10-29T11:20:11.164Z,16.48
2017-10-29T11:21:10.800Z,16.01
2017-10-29T11:22:11.128Z,15.94
2017-10-29T11:23:11.104Z,15.79
2017-10-29T11:24:11.108Z,15.77
2017-10-29T11:25:11.076Z,16.05
2017-10-29T11:26:11.061Z,16.07
2017-10-29T11:27:11.060Z,16.43
2017-10-29T11:28:11.024Z,16.56
2017-10-29T11:29:11.046Z,16.6
2017-10-29T11:30:10.995Z,16.71
2017-10-29T11:31:10.985Z,16.63
2017-10-29T11:32:10.959Z,16.63
2017-10-29T11:33:11.046Z,16.63
2017-10-29T11:34:10.584Z,16.76
2017-10-29T11:35:10.931Z,16.66
2017-10-29T11:36:10.911Z,16.79
2017-10-29T11:37:10.893Z,16.75
2017-10-29T11:38:10.898Z,16.74
2017-10-29T11:39:10.866Z,16.61
2017-10-29T11:40:10.823Z,16.17
2017-10-29T11:41:10.535Z,15.77
2017-10-29T11:42:10.470Z,15.47
2017-10-29T11:43:10.830Z,15.13
2017-10-29T11:44:10.769Z,14.6
2017-10-29T11:45:10.427Z,14.17
2017-10-29T11:46:10.751Z,13.96
2017-10-29T11:47:10.747Z,13.9
2017-10-29T11:48:10.687Z,13.9
2017-10-29T11:49:10.358Z,14
2017-10-29T11:50:10.326Z,13.85
2017-10-29T11:51:10.705Z,13.72
2017-10-29T11:52:10.626Z,13.81
2017-10-29T11:53:10.288Z,14.1
2017-10-29T11:54:10.668Z,14.46
2017-10-29T11:55:09.922Z,14.88
2017-10-29T11:56:10.644Z,15.31
2017-10-29T11:57:10.546Z,15.46
2017-10-29T11:58:10.576Z,15.72
2017-10-29T11:59:10.243Z,15.68
2017-10-29T12:00:10.524Z,15.83
2017-10-29T12:01:10.531Z,15.98
2017-10-29T12:02:10.445Z,16.04
2017-10-29T12:03:10.465Z,16.34
2017-10-29T12:04:10.413Z,16.46
2017-10-29T12:05:10.409Z,16.45
2017-10-29T12:06:10.448Z,16.48
2017-10-29T12:07:10.393Z,16.5
2017-10-29T12:08:10.049Z,16.69
2017-10-29T12:09:10.023Z,16.66
2017-10-29T12:10:10.344Z,16.68
2017-10-29T12:11:10.322Z,16.78
2017-10-29T12:12:10.324Z,16.83
2017-10-29T12:13:10.282Z,16.9
2017-10-29T12:14:10.284Z,16.98
2017-10-29T12:15:10.240Z,17.08
2017-10-29T12:16:09.918Z,17.3
2017-10-29T12:17:09.884Z,17.34
2017-10-29T12:18:10.192Z,17.21
2017-10-29T12:19:09.869Z,17.11
2017-10-29T12:20:10.162Z,16.85
2017-10-29T12:21:09.836Z,16.36
2017-10-29T12:22:09.807Z,16.01
2017-10-29T12:23:10.145Z,15.86
2017-10-29T12:24:10.144Z,15.68
2017-10-29T12:25:10.094Z,15.77
2017-10-29T12:26:10.079Z,16.01
2017-10-29T12:27:10.107Z,16.04
2017-10-29T12:28:10.062Z,15.62
2017-10-29T12:29:10.025Z,15.52
2017-10-29T12:30:10.014Z,15.29
2017-10-29T12:31:09.826Z,15.21
2017-10-29T12:32:09.993Z,15.28
2017-10-29T12:33:09.962Z,15.49
2017-10-29T12:34:09.935Z,15.46
2017-10-29T12:35:09.607Z,15.46
2017-10-29T12:36:09.911Z,15.69
2017-10-29T12:37:09.610Z,15.98
2017-10-29T12:38:09.887Z,16.21
2017-10-29T12:39:09.544Z,16.43
2017-10-29T12:40:09.838Z,16.53
2017-10-29T12:41:09.742Z,16.66
2017-10-29T12:42:09.500Z,16.91
2017-10-29T12:43:09.789Z,16.98
2017-10-29T12:44:09.458Z,16.72
2017-10-29T12:45:09.544Z,16.94
2017-10-29T12:46:09.751Z,16.89
2017-10-29T12:47:09.424Z,17.09
2017-10-29T12:48:09.796Z,17.26
2017-10-29T12:49:09.713Z,17.42
2017-10-29T12:50:09.706Z,17.56
2017-10-29T12:51:09.676Z,17.48
2017-10-29T12:52:09.656Z,17.68
2017-10-29T12:53:09.659Z,17.55
2017-10-29T12:54:09.641Z,17.4
2017-10-29T12:55:09.620Z,17.21